Spiegelgracht — PCEO — position and weather

sailwx.info

Track history (hours):
 
Tides and Currents Weather Stations Pressure Air Temp Water Temp Dewpoint Dewpoint Depression Visibility Wind Speed Wind Dir Waves Ship Positions

Spiegelgracht

Last reported at 2018-Nov-11 02:32 UTC. Time now 2018-Nov-15 08:34 UTC.
Position N 54°24' E 018°39'.

Length 168 m; beam 25 m.

Type: Cargo ship. MMSI: 245789000.

Date/timePositionNaut miles runAvg speedWind from/ knotsBaromVisibWave heightAir tempDewpointWater temp
2018-Nov-11 02:32N 54°24' E 018°39'0 0.0
2018-Nov-11 02:02N 54°24' E 018°39'0 0.0
2018-Nov-11 01:32N 54°24' E 018°39'0 0.0
2018-Nov-11 01:02N 54°24' E 018°39'0 0.0
2018-Nov-11 00:32N 54°24' E 018°39'0 0.0
2018-Nov-11 00:02N 54°24' E 018°39'0 0.0
2018-Nov-10 23:32N 54°24' E 018°39'0 0.0
2018-Nov-10 23:02N 54°24' E 018°39'0 0.0
2018-Nov-10 22:32N 54°24' E 018°39'0 0.0
2018-Nov-10 22:02N 54°24' E 018°39'0 0.0
2018-Nov-10 21:32N 54°24' E 018°39'0 0.0
2018-Nov-10 21:02N 54°24' E 018°39'0 0.0
2018-Nov-10 20:32N 54°24' E 018°39'0 0.0
2018-Nov-10 20:02N 54°24' E 018°39'0 0.0
2018-Nov-10 19:32N 54°24' E 018°39'0 0.0
2018-Nov-10 19:02N 54°24' E 018°39'0 0.0
2018-Nov-10 18:32N 54°24' E 018°39'0 0.0
2018-Nov-10 18:02N 54°24' E 018°39'0 0.0
2018-Nov-10 17:32N 54°24' E 018°39'0 0.0
2018-Nov-10 17:02N 54°24' E 018°39'0 0.0
2018-Nov-10 16:32N 54°24' E 018°39'0 0.0
2018-Nov-10 16:02N 54°24' E 018°39'0 0.0
2018-Nov-10 15:32N 54°24' E 018°39'0 0.0
2018-Nov-10 15:02N 54°24' E 018°39'0 0.0
2018-Nov-10 14:32N 54°24' E 018°39'0 0.0
2018-Nov-10 14:02N 54°24' E 018°39'0 0.0
2018-Nov-10 13:32N 54°24' E 018°39'0 0.0
2018-Nov-10 13:02N 54°24' E 018°39'0 0.0
2018-Nov-10 12:32N 54°24' E 018°39'0 0.0
2018-Nov-10 11:59N 54°24' E 018°39'0 0.0
2018-Nov-10 11:32N 54°24' E 018°39'0 0.0
2018-Nov-10 11:02N 54°24' E 018°39'0 0.0
2018-Nov-10 10:32N 54°24' E 018°39'0 0.0
2018-Nov-10 10:02N 54°24' E 018°39'0 0.0
2018-Nov-10 09:32N 54°24' E 018°39'0 0.0
2018-Nov-10 09:02N 54°24' E 018°39'0 0.0
2018-Nov-10 08:32N 54°24' E 018°39'0 0.0
2018-Nov-10 08:02N 54°24' E 018°39'1 1.9
2018-Nov-10 07:32N 54°25' E 018°39'4 7.4
2018-Nov-10 07:02N 54°29' E 018°42'611.5
2018-Nov-10 06:32N 54°33' E 018°49'611.3
2018-Nov-10 06:02N 54°38' E 018°54'611.7
2018-Nov-10 05:32N 54°43' E 018°58'510.3
2018-Nov-10 05:02N 54°48' E 018°57'713.7
2018-Nov-10 04:33N 54°52' E 018°47'714.0
2018-Nov-10 04:02N 54°57' E 018°38'713.5
2018-Nov-10 03:32N 54°58' E 018°26'714.5
2018-Nov-10 03:02N 54°57' E 018°14'714.1
2018-Nov-10 02:32N 54°57' E 018°01'814.5
2018-Nov-10 01:59N 54°55' E 017°48'714.7
2018-Nov-10 01:32N 54°55' E 017°36'714.6
2018-Nov-10 01:02N 54°54' E 017°24'714.7
2018-Nov-10 00:33N 54°52' E 017°12'813.9
2018-Nov-10 00:00N 54°50' E 016°59'13714.6
2018-Nov-09 14:38N 54°45' E 013°01'315.1
2018-Nov-09 14:26N 54°44' E 012°56'615.0
2018-Nov-09 14:02N 54°44' E 012°46'714.6
2018-Nov-09 13:31N 54°40' E 012°34'814.9
2018-Nov-09 13:00N 54°36' E 012°23'714.0
2018-Nov-09 12:32N 54°31' E 012°16'912.7
2018-Nov-09 11:52N 54°24' E 012°07'1214.7
2018-Nov-09 11:04N 54°25' E 011°47'015.1
2018-Nov-09 11:02N 54°25' E 011°46'714.8
2018-Nov-09 10:33N 54°28' E 011°35'714.4
2018-Nov-09 10:03N 54°31' E 011°24'714.0
2018-Nov-09 09:32N 54°34' E 011°13'714.0
2018-Nov-09 09:02N 54°38' E 011°02'713.7
2018-Nov-09 08:32N 54°42' E 010°53'713.7
2018-Nov-09 08:02N 54°49' E 010°52'713.1
2018-Nov-09 07:32N 54°55' E 010°53'713.4
2018-Nov-09 07:02N 54°60' E 011°01'714.3
2018-Nov-09 06:32N 55°07' E 011°02'714.1
2018-Nov-09 06:02N 55°14' E 011°06'612.4
2018-Nov-09 05:32N 55°20' E 011°02'3 5.5
2018-Nov-09 04:58N 55°23' E 011°01'4611.6
2018-Nov-09 01:00N 56°08' E 011°11'715.4
2018-Nov-09 00:32N 56°14' E 011°20'1515.6
2018-Nov-08 23:33N 56°27' E 011°33'215.7
2018-Nov-08 23:26N 56°29' E 011°35'1415.3
2018-Nov-08 22:29N 56°42' E 011°48'1513.6
2018-Nov-08 21:22N 56°57' E 011°44'515.0
2018-Nov-08 21:02N 57°01' E 011°42'815.0
2018-Nov-08 20:32N 57°08' E 011°37'815.2
2018-Nov-08 20:02N 57°15' E 011°31'815.1
2018-Nov-08 19:32N 57°22' E 011°24'713.9
2018-Nov-08 19:02N 57°29' E 011°21'510.9
2018-Nov-08 18:32N 57°32' E 011°13'510.6
2018-Nov-08 18:02N 57°36' E 011°06'611.6
2018-Nov-08 17:32N 57°40' E 010°59'814.6
2018-Nov-08 17:01N 57°45' E 010°49'714.8
2018-Nov-08 16:32N 57°49' E 010°37'815.6
2018-Nov-08 16:02N 57°49' E 010°22'2415.8
2018-Nov-08 14:29N 57°45' E 009°37'715.6
2018-Nov-08 14:02N 57°45' E 009°24'915.5
2018-Nov-08 13:28N 57°44' E 009°08'715.7
2018-Nov-08 13:02N 57°44' E 008°55'815.7
2018-Nov-08 12:32N 57°43' E 008°40'815.6
2018-Nov-08 12:02N 57°42' E 008°26'815.6
2018-Nov-08 11:32N 57°42' E 008°11'715.0
2018-Nov-08 11:02N 57°41' E 007°57'715.0
2018-Nov-08 10:32N 57°41' E 007°43'714.9
2018-Nov-08 10:02N 57°42' E 007°29'714.8
2018-Nov-08 09:32N 57°42' E 007°15'814.9
2018-Nov-08 09:02N 57°43' E 007°01'714.7
2018-Nov-08 08:32N 57°43' E 006°47'714.7
2018-Nov-08 08:03N 57°43' E 006°34'714.3
2018-Nov-08 07:32N 57°43' E 006°20'612.9
2018-Nov-08 07:02N 57°46' E 006°09'714.4
2018-Nov-08 06:31N 57°47' E 005°55'815.1
2018-Nov-08 06:01N 57°49' E 005°41'714.4
2018-Nov-08 05:32N 57°50' E 005°29'714.5
2018-Nov-08 05:02N 57°51' E 005°15'714.6
2018-Nov-08 04:31N 57°53' E 005°01'612.7
2018-Nov-08 04:01N 57°54' E 004°50'611.9
2018-Nov-08 03:32N 57°55' E 004°39'611.9
2018-Nov-08 03:02N 57°55' E 004°28'711.6
2018-Nov-08 02:28N 57°57' E 004°16'6910.9
2018-Nov-07 20:09N 58°11' E 002°09'28 8.9
2018-Nov-07 17:00N 58°20' E 001°18'6 7.8
2018-Nov-07 16:15N 58°23' E 001°08'11210.5
2018-Nov-07 05:36N 58°42' W 002°22'110.2
2018-Nov-07 05:28N 58°42' W 002°25'511.0
2018-Nov-07 05:02N 58°42' W 002°34'713.7
2018-Nov-07 04:32N 58°43' W 002°47'  
Track history (hours):
 
Tides and Currents Weather Stations Pressure Air Temp Water Temp Dewpoint Dewpoint Depression Visibility Wind Speed Wind Dir Waves Ship Positions

Spiegelgracht

Last reported at 2018-Nov-11 02:32 UTC. Time now 2018-Nov-15 08:34 UTC.
Position N 54°24' E 018°39'.

Length 168 m; beam 25 m.

Type: Cargo ship. MMSI: 245789000.

Date/timePositionNaut miles runAvg speedWind from/ knotsBaromVisibWave heightAir tempDewpointWater temp
2018-Nov-11 02:32N 54°24' E 018°39'0 0.0
2018-Nov-11 02:02N 54°24' E 018°39'0 0.0
2018-Nov-11 01:32N 54°24' E 018°39'0 0.0
2018-Nov-11 01:02N 54°24' E 018°39'0 0.0
2018-Nov-11 00:32N 54°24' E 018°39'0 0.0
2018-Nov-11 00:02N 54°24' E 018°39'0 0.0
2018-Nov-10 23:32N 54°24' E 018°39'0 0.0
2018-Nov-10 23:02N 54°24' E 018°39'0 0.0
2018-Nov-10 22:32N 54°24' E 018°39'0 0.0
2018-Nov-10 22:02N 54°24' E 018°39'0 0.0
2018-Nov-10 21:32N 54°24' E 018°39'0 0.0
2018-Nov-10 21:02N 54°24' E 018°39'0 0.0
2018-Nov-10 20:32N 54°24' E 018°39'0 0.0
2018-Nov-10 20:02N 54°24' E 018°39'0 0.0
2018-Nov-10 19:32N 54°24' E 018°39'0 0.0
2018-Nov-10 19:02N 54°24' E 018°39'0 0.0
2018-Nov-10 18:32N 54°24' E 018°39'0 0.0
2018-Nov-10 18:02N 54°24' E 018°39'0 0.0
2018-Nov-10 17:32N 54°24' E 018°39'0 0.0
2018-Nov-10 17:02N 54°24' E 018°39'0 0.0
2018-Nov-10 16:32N 54°24' E 018°39'0 0.0
2018-Nov-10 16:02N 54°24' E 018°39'0 0.0
2018-Nov-10 15:32N 54°24' E 018°39'0 0.0
2018-Nov-10 15:02N 54°24' E 018°39'0 0.0
2018-Nov-10 14:32N 54°24' E 018°39'0 0.0
2018-Nov-10 14:02N 54°24' E 018°39'0 0.0
2018-Nov-10 13:32N 54°24' E 018°39'0 0.0
2018-Nov-10 13:02N 54°24' E 018°39'0 0.0
2018-Nov-10 12:32N 54°24' E 018°39'0 0.0
2018-Nov-10 11:59N 54°24' E 018°39'0 0.0
2018-Nov-10 11:32N 54°24' E 018°39'0 0.0
2018-Nov-10 11:02N 54°24' E 018°39'0 0.0
2018-Nov-10 10:32N 54°24' E 018°39'0 0.0
2018-Nov-10 10:02N 54°24' E 018°39'0 0.0
2018-Nov-10 09:32N 54°24' E 018°39'0 0.0
2018-Nov-10 09:02N 54°24' E 018°39'0 0.0
2018-Nov-10 08:32N 54°24' E 018°39'0 0.0
2018-Nov-10 08:02N 54°24' E 018°39'1 1.9
2018-Nov-10 07:32N 54°25' E 018°39'4 7.4
2018-Nov-10 07:02N 54°29' E 018°42'611.5
2018-Nov-10 06:32N 54°33' E 018°49'611.3
2018-Nov-10 06:02N 54°38' E 018°54'611.7
2018-Nov-10 05:32N 54°43' E 018°58'510.3
2018-Nov-10 05:02N 54°48' E 018°57'713.7
2018-Nov-10 04:33N 54°52' E 018°47'714.0
2018-Nov-10 04:02N 54°57' E 018°38'713.5
2018-Nov-10 03:32N 54°58' E 018°26'714.5
2018-Nov-10 03:02N 54°57' E 018°14'714.1
2018-Nov-10 02:32N 54°57' E 018°01'814.5
2018-Nov-10 01:59N 54°55' E 017°48'714.7
2018-Nov-10 01:32N 54°55' E 017°36'714.6
2018-Nov-10 01:02N 54°54' E 017°24'714.7
2018-Nov-10 00:33N 54°52' E 017°12'813.9
2018-Nov-10 00:00N 54°50' E 016°59'13714.6
2018-Nov-09 14:38N 54°45' E 013°01'315.1
2018-Nov-09 14:26N 54°44' E 012°56'615.0
2018-Nov-09 14:02N 54°44' E 012°46'714.6
2018-Nov-09 13:31N 54°40' E 012°34'814.9
2018-Nov-09 13:00N 54°36' E 012°23'714.0
2018-Nov-09 12:32N 54°31' E 012°16'912.7
2018-Nov-09 11:52N 54°24' E 012°07'1214.7
2018-Nov-09 11:04N 54°25' E 011°47'015.1
2018-Nov-09 11:02N 54°25' E 011°46'714.8
2018-Nov-09 10:33N 54°28' E 011°35'714.4
2018-Nov-09 10:03N 54°31' E 011°24'714.0
2018-Nov-09 09:32N 54°34' E 011°13'714.0
2018-Nov-09 09:02N 54°38' E 011°02'713.7
2018-Nov-09 08:32N 54°42' E 010°53'713.7
2018-Nov-09 08:02N 54°49' E 010°52'713.1
2018-Nov-09 07:32N 54°55' E 010°53'713.4
2018-Nov-09 07:02N 54°60' E 011°01'714.3
2018-Nov-09 06:32N 55°07' E 011°02'714.1
2018-Nov-09 06:02N 55°14' E 011°06'612.4
2018-Nov-09 05:32N 55°20' E 011°02'3 5.5
2018-Nov-09 04:58N 55°23' E 011°01'4611.6
2018-Nov-09 01:00N 56°08' E 011°11'715.4
2018-Nov-09 00:32N 56°14' E 011°20'1515.6
2018-Nov-08 23:33N 56°27' E 011°33'215.7
2018-Nov-08 23:26N 56°29' E 011°35'1415.3
2018-Nov-08 22:29N 56°42' E 011°48'1513.6
2018-Nov-08 21:22N 56°57' E 011°44'515.0
2018-Nov-08 21:02N 57°01' E 011°42'815.0
2018-Nov-08 20:32N 57°08' E 011°37'815.2
2018-Nov-08 20:02N 57°15' E 011°31'815.1
2018-Nov-08 19:32N 57°22' E 011°24'713.9
2018-Nov-08 19:02N 57°29' E 011°21'510.9
2018-Nov-08 18:32N 57°32' E 011°13'510.6
2018-Nov-08 18:02N 57°36' E 011°06'611.6
2018-Nov-08 17:32N 57°40' E 010°59'814.6
2018-Nov-08 17:01N 57°45' E 010°49'714.8
2018-Nov-08 16:32N 57°49' E 010°37'815.6
2018-Nov-08 16:02N 57°49' E 010°22'2415.8
2018-Nov-08 14:29N 57°45' E 009°37'715.6
2018-Nov-08 14:02N 57°45' E 009°24'915.5
2018-Nov-08 13:28N 57°44' E 009°08'715.7
2018-Nov-08 13:02N 57°44' E 008°55'815.7
2018-Nov-08 12:32N 57°43' E 008°40'815.6
2018-Nov-08 12:02N 57°42' E 008°26'815.6
2018-Nov-08 11:32N 57°42' E 008°11'715.0
2018-Nov-08 11:02N 57°41' E 007°57'715.0
2018-Nov-08 10:32N 57°41' E 007°43'714.9
2018-Nov-08 10:02N 57°42' E 007°29'714.8
2018-Nov-08 09:32N 57°42' E 007°15'814.9
2018-Nov-08 09:02N 57°43' E 007°01'714.7
2018-Nov-08 08:32N 57°43' E 006°47'714.7
2018-Nov-08 08:03N 57°43' E 006°34'714.3
2018-Nov-08 07:32N 57°43' E 006°20'612.9
2018-Nov-08 07:02N 57°46' E 006°09'714.4
2018-Nov-08 06:31N 57°47' E 005°55'815.1
2018-Nov-08 06:01N 57°49' E 005°41'714.4
2018-Nov-08 05:32N 57°50' E 005°29'714.5
2018-Nov-08 05:02N 57°51' E 005°15'714.6
2018-Nov-08 04:31N 57°53' E 005°01'612.7
2018-Nov-08 04:01N 57°54' E 004°50'611.9
2018-Nov-08 03:32N 57°55' E 004°39'611.9
2018-Nov-08 03:02N 57°55' E 004°28'711.6
2018-Nov-08 02:28N 57°57' E 004°16'6910.9
2018-Nov-07 20:09N 58°11' E 002°09'28 8.9
2018-Nov-07 17:00N 58°20' E 001°18'6 7.8
2018-Nov-07 16:15N 58°23' E 001°08'11210.5
2018-Nov-07 05:36N 58°42' W 002°22'110.2
2018-Nov-07 05:28N 58°42' W 002°25'511.0
2018-Nov-07 05:02N 58°42' W 002°34'713.7
2018-Nov-07 04:32N 58°43' W 002°47'  

Dump ship's entire track history